sensor_id;sensor_type;location;lat;lon;timestamp;P1;durP1;ratioP1;P2;durP2;ratioP2
42030;SDS011;27709;52.036;5.906;2022-08-03T00:00:07;4.03;;;1.02;;
42030;SDS011;27709;52.036;5.906;2022-08-03T00:02:33;3.53;;;1.08;;
42030;SDS011;27709;52.036;5.906;2022-08-03T00:04:59;3.17;;;0.80;;
42030;SDS011;27709;52.036;5.906;2022-08-03T00:07:24;3.53;;;1.00;;
42030;SDS011;27709;52.036;5.906;2022-08-03T00:09:50;4.72;;;1.00;;
42030;SDS011;27709;52.036;5.906;2022-08-03T00:12:15;2.58;;;0.70;;
42030;SDS011;27709;52.036;5.906;2022-08-03T00:14:41;4.35;;;1.15;;
42030;SDS011;27709;52.036;5.906;2022-08-03T00:17:06;4.20;;;0.90;;
42030;SDS011;27709;52.036;5.906;2022-08-03T00:19:32;5.22;;;0.80;;
42030;SDS011;27709;52.036;5.906;2022-08-03T00:21:57;3.40;;;0.90;;
42030;SDS011;27709;52.036;5.906;2022-08-03T00:24:23;3.88;;;1.00;;
42030;SDS011;27709;52.036;5.906;2022-08-03T00:26:49;3.88;;;0.90;;
42030;SDS011;27709;52.036;5.906;2022-08-03T00:29:14;3.17;;;0.90;;
42030;SDS011;27709;52.036;5.906;2022-08-03T00:31:40;3.70;;;0.90;;
42030;SDS011;27709;52.036;5.906;2022-08-03T00:34:05;3.17;;;0.90;;
42030;SDS011;27709;52.036;5.906;2022-08-03T00:36:31;5.78;;;0.90;;
42030;SDS011;27709;52.036;5.906;2022-08-03T00:38:56;4.95;;;1.00;;
42030;SDS011;27709;52.036;5.906;2022-08-03T00:41:23;4.07;;;0.88;;
42030;SDS011;27709;52.036;5.906;2022-08-03T00:43:49;2.97;;;0.80;;
42030;SDS011;27709;52.036;5.906;2022-08-03T00:46:14;3.95;;;1.10;;
42030;SDS011;27709;52.036;5.906;2022-08-03T00:48:40;4.10;;;0.80;;
42030;SDS011;27709;52.036;5.906;2022-08-03T00:51:06;3.17;;;1.02;;
42030;SDS011;27709;52.036;5.906;2022-08-03T00:53:32;2.80;;;0.80;;
42030;SDS011;27709;52.036;5.906;2022-08-03T00:55:59;3.20;;;0.93;;
42030;SDS011;27709;52.036;5.906;2022-08-03T00:58:28;4.40;;;0.90;;
42030;SDS011;27709;52.036;5.906;2022-08-03T01:00:53;2.60;;;0.80;;
42030;SDS011;27709;52.036;5.906;2022-08-03T01:03:19;3.40;;;1.10;;
42030;SDS011;27709;52.036;5.906;2022-08-03T01:05:48;4.70;;;1.00;;
42030;SDS011;27709;52.036;5.906;2022-08-03T01:08:27;3.00;;;0.90;;
42030;SDS011;27709;52.036;5.906;2022-08-03T01:11:23;5.22;;;1.25;;
42030;SDS011;27709;52.036;5.906;2022-08-03T01:14:21;7.72;;;1.42;;
42030;SDS011;27709;52.036;5.906;2022-08-03T01:16:56;3.97;;;1.20;;
42030;SDS011;27709;52.036;5.906;2022-08-03T01:22:36;3.38;;;1.00;;
42030;SDS011;27709;52.036;5.906;2022-08-03T01:30:32;4.47;;;1.02;;
42030;SDS011;27709;52.036;5.906;2022-08-03T01:33:10;3.58;;;1.00;;
42030;SDS011;27709;52.036;5.906;2022-08-03T01:35:47;4.30;;;1.27;;
42030;SDS011;27709;52.036;5.906;2022-08-03T01:38:24;6.88;;;1.35;;
42030;SDS011;27709;52.036;5.906;2022-08-03T01:40:55;5.80;;;1.40;;
42030;SDS011;27709;52.036;5.906;2022-08-03T01:43:25;4.13;;;1.27;;
42030;SDS011;27709;52.036;5.906;2022-08-03T01:45:53;3.53;;;1.10;;
42030;SDS011;27709;52.036;5.906;2022-08-03T01:48:21;1.90;;;0.88;;
42030;SDS011;27709;52.036;5.906;2022-08-03T01:50:47;3.85;;;0.95;;
42030;SDS011;27709;52.036;5.906;2022-08-03T01:53:15;3.40;;;1.10;;
42030;SDS011;27709;52.036;5.906;2022-08-03T01:55:42;3.08;;;1.20;;
42030;SDS011;27709;52.036;5.906;2022-08-03T01:58:09;4.20;;;1.30;;
42030;SDS011;27709;52.036;5.906;2022-08-03T02:00:38;4.72;;;1.25;;
42030;SDS011;27709;52.036;5.906;2022-08-03T02:03:05;3.83;;;1.10;;
42030;SDS011;27709;52.036;5.906;2022-08-03T02:05:32;4.25;;;1.25;;
42030;SDS011;27709;52.036;5.906;2022-08-03T02:07:59;4.10;;;1.35;;
42030;SDS011;27709;52.036;5.906;2022-08-03T02:10:27;4.15;;;1.20;;
42030;SDS011;27709;52.036;5.906;2022-08-03T02:12:56;4.82;;;1.17;;
42030;SDS011;27709;52.036;5.906;2022-08-03T02:15:25;3.92;;;1.27;;
42030;SDS011;27709;52.036;5.906;2022-08-03T02:17:52;4.45;;;1.08;;
42030;SDS011;27709;52.036;5.906;2022-08-03T02:20:20;3.72;;;1.10;;
42030;SDS011;27709;52.036;5.906;2022-08-03T02:22:45;4.72;;;1.10;;
42030;SDS011;27709;52.036;5.906;2022-08-03T02:25:12;3.40;;;0.90;;
42030;SDS011;27709;52.036;5.906;2022-08-03T02:27:42;4.18;;;1.00;;
42030;SDS011;27709;52.036;5.906;2022-08-03T02:30:18;4.82;;;1.38;;
42030;SDS011;27709;52.036;5.906;2022-08-03T02:32:47;6.05;;;1.40;;
42030;SDS011;27709;52.036;5.906;2022-08-03T02:37:45;5.68;;;1.45;;
42030;SDS011;27709;52.036;5.906;2022-08-03T02:40:15;4.35;;;1.33;;
42030;SDS011;27709;52.036;5.906;2022-08-03T02:42:42;5.00;;;1.23;;
42030;SDS011;27709;52.036;5.906;2022-08-03T02:45:10;3.97;;;0.90;;
42030;SDS011;27709;52.036;5.906;2022-08-03T02:47:38;4.28;;;1.20;;
42030;SDS011;27709;52.036;5.906;2022-08-03T02:50:06;2.40;;;1.08;;
42030;SDS011;27709;52.036;5.906;2022-08-03T02:52:34;5.45;;;1.00;;
42030;SDS011;27709;52.036;5.906;2022-08-03T02:55:01;4.15;;;1.20;;
42030;SDS011;27709;52.036;5.906;2022-08-03T02:57:29;4.43;;;1.10;;
42030;SDS011;27709;52.036;5.906;2022-08-03T02:59:55;4.70;;;1.40;;
42030;SDS011;27709;52.036;5.906;2022-08-03T03:02:22;3.50;;;1.17;;
42030;SDS011;27709;52.036;5.906;2022-08-03T03:04:50;3.85;;;1.20;;
42030;SDS011;27709;52.036;5.906;2022-08-03T03:07:17;3.80;;;1.23;;
42030;SDS011;27709;52.036;5.906;2022-08-03T03:09:44;2.53;;;1.13;;
42030;SDS011;27709;52.036;5.906;2022-08-03T03:12:11;3.38;;;1.10;;
42030;SDS011;27709;52.036;5.906;2022-08-03T03:14:38;3.60;;;1.20;;
42030;SDS011;27709;52.036;5.906;2022-08-03T03:17:08;4.55;;;0.98;;
42030;SDS011;27709;52.036;5.906;2022-08-03T03:19:35;5.13;;;1.15;;
42030;SDS011;27709;52.036;5.906;2022-08-03T03:22:02;4.95;;;1.40;;
42030;SDS011;27709;52.036;5.906;2022-08-03T03:24:31;3.85;;;1.23;;
42030;SDS011;27709;52.036;5.906;2022-08-03T03:26:58;4.65;;;1.50;;
42030;SDS011;27709;52.036;5.906;2022-08-03T03:29:24;4.18;;;1.40;;
42030;SDS011;27709;52.036;5.906;2022-08-03T03:31:50;4.68;;;1.40;;
42030;SDS011;27709;52.036;5.906;2022-08-03T03:34:16;3.60;;;1.17;;
42030;SDS011;27709;52.036;5.906;2022-08-03T03:36:43;4.78;;;1.23;;
42030;SDS011;27709;52.036;5.906;2022-08-03T03:39:08;4.35;;;1.30;;
42030;SDS011;27709;52.036;5.906;2022-08-03T03:41:34;3.65;;;1.30;;
42030;SDS011;27709;52.036;5.906;2022-08-03T03:44:00;5.13;;;1.35;;
42030;SDS011;27709;52.036;5.906;2022-08-03T03:46:26;6.97;;;1.70;;
42030;SDS011;27709;52.036;5.906;2022-08-03T03:48:52;3.95;;;1.20;;
42030;SDS011;27709;52.036;5.906;2022-08-03T03:51:18;3.33;;;1.30;;
42030;SDS011;27709;52.036;5.906;2022-08-03T03:53:53;3.88;;;1.42;;
42030;SDS011;27709;52.036;5.906;2022-08-03T03:56:20;4.00;;;1.30;;
42030;SDS011;27709;52.036;5.906;2022-08-03T03:58:45;4.78;;;1.50;;
42030;SDS011;27709;52.036;5.906;2022-08-03T04:01:11;6.13;;;1.38;;
42030;SDS011;27709;52.036;5.906;2022-08-03T04:03:37;4.25;;;1.40;;
42030;SDS011;27709;52.036;5.906;2022-08-03T04:06:03;3.85;;;1.50;;
42030;SDS011;27709;52.036;5.906;2022-08-03T04:08:47;5.03;;;1.48;;
42030;SDS011;27709;52.036;5.906;2022-08-03T04:11:33;3.65;;;1.50;;
42030;SDS011;27709;52.036;5.906;2022-08-03T04:16:50;5.75;;;1.88;;
42030;SDS011;27709;52.036;5.906;2022-08-03T04:19:41;6.15;;;1.70;;
42030;SDS011;27709;52.036;5.906;2022-08-03T04:22:11;6.40;;;1.83;;
42030;SDS011;27709;52.036;5.906;2022-08-03T04:24:42;6.43;;;1.70;;
42030;SDS011;27709;52.036;5.906;2022-08-03T04:27:11;3.55;;;1.15;;
42030;SDS011;27709;52.036;5.906;2022-08-03T04:29:41;4.47;;;1.50;;
42030;SDS011;27709;52.036;5.906;2022-08-03T04:32:10;4.03;;;1.60;;
42030;SDS011;27709;52.036;5.906;2022-08-03T04:34:36;6.65;;;1.60;;
42030;SDS011;27709;52.036;5.906;2022-08-03T04:37:04;5.53;;;2.28;;
42030;SDS011;27709;52.036;5.906;2022-08-03T04:39:34;3.92;;;1.98;;
42030;SDS011;27709;52.036;5.906;2022-08-03T04:42:03;5.93;;;1.73;;
42030;SDS011;27709;52.036;5.906;2022-08-03T04:44:33;6.30;;;2.20;;
42030;SDS011;27709;52.036;5.906;2022-08-03T04:47:01;8.48;;;2.65;;
42030;SDS011;27709;52.036;5.906;2022-08-03T04:49:27;5.65;;;2.88;;
42030;SDS011;27709;52.036;5.906;2022-08-03T04:51:54;7.20;;;3.30;;
42030;SDS011;27709;52.036;5.906;2022-08-03T04:54:22;7.97;;;3.53;;
42030;SDS011;27709;52.036;5.906;2022-08-03T04:56:47;7.75;;;2.97;;
42030;SDS011;27709;52.036;5.906;2022-08-03T04:59:13;7.10;;;2.88;;
42030;SDS011;27709;52.036;5.906;2022-08-03T05:01:39;7.93;;;3.50;;
42030;SDS011;27709;52.036;5.906;2022-08-03T05:04:06;7.88;;;3.17;;
42030;SDS011;27709;52.036;5.906;2022-08-03T05:06:31;8.07;;;2.78;;
42030;SDS011;27709;52.036;5.906;2022-08-03T05:08:57;9.38;;;3.53;;
42030;SDS011;27709;52.036;5.906;2022-08-03T05:11:22;8.80;;;4.07;;
42030;SDS011;27709;52.036;5.906;2022-08-03T05:13:48;7.13;;;3.45;;
42030;SDS011;27709;52.036;5.906;2022-08-03T05:16:14;6.38;;;3.60;;
42030;SDS011;27709;52.036;5.906;2022-08-03T05:18:42;10.45;;;4.32;;
42030;SDS011;27709;52.036;5.906;2022-08-03T05:21:09;6.32;;;3.30;;
42030;SDS011;27709;52.036;5.906;2022-08-03T05:23:34;9.75;;;3.67;;
42030;SDS011;27709;52.036;5.906;2022-08-03T05:26:01;8.20;;;2.90;;
42030;SDS011;27709;52.036;5.906;2022-08-03T05:28:27;9.77;;;3.40;;
42030;SDS011;27709;52.036;5.906;2022-08-03T05:30:52;8.15;;;2.85;;
42030;SDS011;27709;52.036;5.906;2022-08-03T05:33:18;7.70;;;2.67;;
42030;SDS011;27709;52.036;5.906;2022-08-03T05:35:43;6.55;;;2.72;;
42030;SDS011;27709;52.036;5.906;2022-08-03T05:38:09;6.75;;;2.80;;
42030;SDS011;27709;52.036;5.906;2022-08-03T05:40:35;5.28;;;2.53;;
42030;SDS011;27709;52.036;5.906;2022-08-03T05:43:00;8.65;;;3.08;;
42030;SDS011;27709;52.036;5.906;2022-08-03T05:45:26;4.63;;;1.90;;
42030;SDS011;27709;52.036;5.906;2022-08-03T05:47:51;7.15;;;2.10;;
42030;SDS011;27709;52.036;5.906;2022-08-03T05:50:18;3.22;;;1.75;;
42030;SDS011;27709;52.036;5.906;2022-08-03T05:52:44;5.75;;;2.40;;
42030;SDS011;27709;52.036;5.906;2022-08-03T05:55:10;5.53;;;2.42;;
42030;SDS011;27709;52.036;5.906;2022-08-03T05:57:36;7.50;;;2.50;;
42030;SDS011;27709;52.036;5.906;2022-08-03T06:00:05;8.65;;;2.92;;
42030;SDS011;27709;52.036;5.906;2022-08-03T06:02:33;6.55;;;2.55;;
42030;SDS011;27709;52.036;5.906;2022-08-03T06:04:59;7.25;;;2.35;;
42030;SDS011;27709;52.036;5.906;2022-08-03T06:07:24;9.13;;;2.35;;
42030;SDS011;27709;52.036;5.906;2022-08-03T06:09:50;8.13;;;3.08;;
42030;SDS011;27709;52.036;5.906;2022-08-03T06:12:16;7.72;;;2.90;;
42030;SDS011;27709;52.036;5.906;2022-08-03T06:14:42;8.30;;;2.47;;
42030;SDS011;27709;52.036;5.906;2022-08-03T06:17:07;7.85;;;2.60;;
42030;SDS011;27709;52.036;5.906;2022-08-03T06:19:33;11.27;;;3.08;;
42030;SDS011;27709;52.036;5.906;2022-08-03T06:21:58;9.38;;;2.60;;
42030;SDS011;27709;52.036;5.906;2022-08-03T06:24:24;8.60;;;2.88;;
42030;SDS011;27709;52.036;5.906;2022-08-03T06:26:49;8.90;;;2.35;;
42030;SDS011;27709;52.036;5.906;2022-08-03T06:29:15;7.97;;;2.47;;
42030;SDS011;27709;52.036;5.906;2022-08-03T06:31:40;5.47;;;2.38;;
42030;SDS011;27709;52.036;5.906;2022-08-03T06:34:06;9.18;;;2.30;;
42030;SDS011;27709;52.036;5.906;2022-08-03T06:36:32;8.30;;;2.30;;
42030;SDS011;27709;52.036;5.906;2022-08-03T06:38:57;7.55;;;2.47;;
42030;SDS011;27709;52.036;5.906;2022-08-03T06:41:23;7.38;;;2.35;;
42030;SDS011;27709;52.036;5.906;2022-08-03T06:43:49;7.10;;;2.20;;
42030;SDS011;27709;52.036;5.906;2022-08-03T06:46:15;9.68;;;2.67;;
42030;SDS011;27709;52.036;5.906;2022-08-03T06:48:40;7.05;;;2.15;;
42030;SDS011;27709;52.036;5.906;2022-08-03T06:51:06;8.15;;;2.10;;
42030;SDS011;27709;52.036;5.906;2022-08-03T06:53:32;7.45;;;2.00;;
42030;SDS011;27709;52.036;5.906;2022-08-03T06:55:57;9.10;;;2.25;;
42030;SDS011;27709;52.036;5.906;2022-08-03T06:58:23;7.18;;;2.60;;
42030;SDS011;27709;52.036;5.906;2022-08-03T07:00:49;6.63;;;1.90;;
42030;SDS011;27709;52.036;5.906;2022-08-03T07:03:14;6.35;;;1.90;;
42030;SDS011;27709;52.036;5.906;2022-08-03T07:05:40;6.30;;;2.03;;
42030;SDS011;27709;52.036;5.906;2022-08-03T07:08:11;8.45;;;2.08;;
42030;SDS011;27709;52.036;5.906;2022-08-03T07:10:38;7.78;;;2.05;;
42030;SDS011;27709;52.036;5.906;2022-08-03T07:13:04;7.32;;;2.20;;
42030;SDS011;27709;52.036;5.906;2022-08-03T07:15:29;8.43;;;2.00;;
42030;SDS011;27709;52.036;5.906;2022-08-03T07:17:55;7.80;;;1.85;;
42030;SDS011;27709;52.036;5.906;2022-08-03T07:20:21;7.18;;;1.95;;
42030;SDS011;27709;52.036;5.906;2022-08-03T07:22:47;7.30;;;1.80;;
42030;SDS011;27709;52.036;5.906;2022-08-03T07:25:13;8.98;;;1.83;;
42030;SDS011;27709;52.036;5.906;2022-08-03T07:27:42;11.38;;;2.25;;
42030;SDS011;27709;52.036;5.906;2022-08-03T07:30:08;7.00;;;1.73;;
42030;SDS011;27709;52.036;5.906;2022-08-03T07:32:34;7.85;;;1.77;;
42030;SDS011;27709;52.036;5.906;2022-08-03T07:34:59;7.32;;;1.50;;
42030;SDS011;27709;52.036;5.906;2022-08-03T07:37:25;8.38;;;1.92;;
42030;SDS011;27709;52.036;5.906;2022-08-03T07:39:51;8.63;;;1.98;;
42030;SDS011;27709;52.036;5.906;2022-08-03T07:42:16;9.52;;;2.15;;
42030;SDS011;27709;52.036;5.906;2022-08-03T07:44:42;5.88;;;1.30;;
42030;SDS011;27709;52.036;5.906;2022-08-03T07:47:07;6.68;;;1.73;;
42030;SDS011;27709;52.036;5.906;2022-08-03T07:49:37;10.85;;;2.00;;
42030;SDS011;27709;52.036;5.906;2022-08-03T07:52:03;7.28;;;1.77;;
42030;SDS011;27709;52.036;5.906;2022-08-03T07:54:47;10.82;;;2.15;;
42030;SDS011;27709;52.036;5.906;2022-08-03T07:57:13;5.57;;;1.50;;
42030;SDS011;27709;52.036;5.906;2022-08-03T07:59:38;9.68;;;1.98;;
42030;SDS011;27709;52.036;5.906;2022-08-03T08:02:05;7.53;;;1.50;;
42030;SDS011;27709;52.036;5.906;2022-08-03T08:04:31;7.30;;;1.63;;
42030;SDS011;27709;52.036;5.906;2022-08-03T08:06:56;8.77;;;1.98;;
42030;SDS011;27709;52.036;5.906;2022-08-03T08:09:22;10.18;;;1.90;;
42030;SDS011;27709;52.036;5.906;2022-08-03T08:11:48;5.93;;;1.58;;
42030;SDS011;27709;52.036;5.906;2022-08-03T08:14:13;11.07;;;1.75;;
42030;SDS011;27709;52.036;5.906;2022-08-03T08:16:39;6.53;;;1.63;;
42030;SDS011;27709;52.036;5.906;2022-08-03T08:19:04;9.48;;;1.80;;
42030;SDS011;27709;52.036;5.906;2022-08-03T08:21:30;7.47;;;1.60;;
42030;SDS011;27709;52.036;5.906;2022-08-03T08:23:55;6.70;;;1.75;;
42030;SDS011;27709;52.036;5.906;2022-08-03T08:26:21;8.65;;;1.85;;
42030;SDS011;27709;52.036;5.906;2022-08-03T08:28:46;7.72;;;1.65;;
42030;SDS011;27709;52.036;5.906;2022-08-03T08:31:12;7.07;;;1.48;;
42030;SDS011;27709;52.036;5.906;2022-08-03T08:33:37;7.53;;;1.60;;
42030;SDS011;27709;52.036;5.906;2022-08-03T08:36:03;7.63;;;1.30;;
42030;SDS011;27709;52.036;5.906;2022-08-03T08:38:30;10.00;;;1.85;;
42030;SDS011;27709;52.036;5.906;2022-08-03T08:40:55;13.48;;;2.03;;
42030;SDS011;27709;52.036;5.906;2022-08-03T08:43:22;12.07;;;1.50;;
42030;SDS011;27709;52.036;5.906;2022-08-03T08:45:49;8.05;;;1.65;;
42030;SDS011;27709;52.036;5.906;2022-08-03T08:48:24;10.77;;;1.70;;
42030;SDS011;27709;52.036;5.906;2022-08-03T08:50:53;10.48;;;1.75;;
42030;SDS011;27709;52.036;5.906;2022-08-03T08:53:20;8.95;;;2.00;;
42030;SDS011;27709;52.036;5.906;2022-08-03T08:55:48;10.98;;;1.58;;
42030;SDS011;27709;52.036;5.906;2022-08-03T08:58:15;10.40;;;1.90;;
42030;SDS011;27709;52.036;5.906;2022-08-03T09:00:43;9.52;;;1.70;;
42030;SDS011;27709;52.036;5.906;2022-08-03T09:03:10;9.93;;;1.90;;
42030;SDS011;27709;52.036;5.906;2022-08-03T09:05:36;14.85;;;2.20;;
42030;SDS011;27709;52.036;5.906;2022-08-03T09:08:03;10.73;;;2.13;;
42030;SDS011;27709;52.036;5.906;2022-08-03T09:10:30;9.27;;;1.77;;
42030;SDS011;27709;52.036;5.906;2022-08-03T09:12:55;12.10;;;1.98;;
42030;SDS011;27709;52.036;5.906;2022-08-03T09:17:55;10.07;;;2.20;;
42030;SDS011;27709;52.036;5.906;2022-08-03T09:20:23;9.55;;;2.28;;
42030;SDS011;27709;52.036;5.906;2022-08-03T09:25:47;12.30;;;2.25;;
42030;SDS011;27709;52.036;5.906;2022-08-03T09:28:12;8.15;;;2.00;;
42030;SDS011;27709;52.036;5.906;2022-08-03T09:30:41;9.80;;;1.90;;
42030;SDS011;27709;52.036;5.906;2022-08-03T09:33:08;9.90;;;1.90;;
42030;SDS011;27709;52.036;5.906;2022-08-03T09:35:39;9.60;;;1.90;;
42030;SDS011;27709;52.036;5.906;2022-08-03T09:40:34;8.50;;;1.77;;
42030;SDS011;27709;52.036;5.906;2022-08-03T09:43:00;11.05;;;2.15;;
42030;SDS011;27709;52.036;5.906;2022-08-03T09:45:26;11.77;;;2.00;;
42030;SDS011;27709;52.036;5.906;2022-08-03T09:47:52;9.77;;;1.98;;
42030;SDS011;27709;52.036;5.906;2022-08-03T09:50:18;9.50;;;1.77;;
42030;SDS011;27709;52.036;5.906;2022-08-03T09:52:43;10.60;;;2.08;;
42030;SDS011;27709;52.036;5.906;2022-08-03T09:55:11;9.65;;;1.83;;
42030;SDS011;27709;52.036;5.906;2022-08-03T09:57:38;11.43;;;2.25;;
42030;SDS011;27709;52.036;5.906;2022-08-03T10:00:11;9.93;;;2.08;;
42030;SDS011;27709;52.036;5.906;2022-08-03T10:02:39;9.48;;;1.90;;
42030;SDS011;27709;52.036;5.906;2022-08-03T10:05:06;9.23;;;1.88;;
42030;SDS011;27709;52.036;5.906;2022-08-03T10:07:43;10.52;;;2.03;;
42030;SDS011;27709;52.036;5.906;2022-08-03T10:10:10;10.48;;;1.98;;
42030;SDS011;27709;52.036;5.906;2022-08-03T10:12:36;6.65;;;1.67;;
42030;SDS011;27709;52.036;5.906;2022-08-03T10:15:03;8.68;;;1.80;;
42030;SDS011;27709;52.036;5.906;2022-08-03T10:17:29;10.23;;;1.98;;
42030;SDS011;27709;52.036;5.906;2022-08-03T10:19:55;10.77;;;1.88;;
42030;SDS011;27709;52.036;5.906;2022-08-03T10:22:21;9.32;;;1.75;;
42030;SDS011;27709;52.036;5.906;2022-08-03T10:24:51;10.77;;;1.80;;
42030;SDS011;27709;52.036;5.906;2022-08-03T10:27:21;15.13;;;2.53;;
42030;SDS011;27709;52.036;5.906;2022-08-03T10:29:51;10.73;;;1.80;;
42030;SDS011;27709;52.036;5.906;2022-08-03T10:35:14;10.85;;;1.80;;
42030;SDS011;27709;52.036;5.906;2022-08-03T10:40:16;9.90;;;1.92;;
42030;SDS011;27709;52.036;5.906;2022-08-03T10:42:46;9.90;;;1.73;;
42030;SDS011;27709;52.036;5.906;2022-08-03T10:45:19;8.65;;;1.50;;
42030;SDS011;27709;52.036;5.906;2022-08-03T10:47:47;8.80;;;1.63;;
42030;SDS011;27709;52.036;5.906;2022-08-03T10:50:15;6.07;;;1.42;;
42030;SDS011;27709;52.036;5.906;2022-08-03T10:52:54;11.07;;;1.60;;
42030;SDS011;27709;52.036;5.906;2022-08-03T10:55:31;8.02;;;1.52;;
42030;SDS011;27709;52.036;5.906;2022-08-03T11:01:01;9.48;;;1.70;;
42030;SDS011;27709;52.036;5.906;2022-08-03T11:03:32;9.73;;;1.60;;
42030;SDS011;27709;52.036;5.906;2022-08-03T11:06:14;8.68;;;1.75;;
42030;SDS011;27709;52.036;5.906;2022-08-03T11:08:46;10.13;;;1.90;;
42030;SDS011;27709;52.036;5.906;2022-08-03T11:16:39;9.93;;;1.35;;
42030;SDS011;27709;52.036;5.906;2022-08-03T11:19:16;9.50;;;1.40;;
42030;SDS011;27709;52.036;5.906;2022-08-03T11:21:52;8.52;;;1.65;;
42030;SDS011;27709;52.036;5.906;2022-08-03T11:27:24;7.85;;;1.40;;
42030;SDS011;27709;52.036;5.906;2022-08-03T11:35:20;7.97;;;1.30;;
42030;SDS011;27709;52.036;5.906;2022-08-03T11:48:27;7.63;;;1.40;;
42030;SDS011;27709;52.036;5.906;2022-08-03T11:51:17;9.48;;;1.52;;
42030;SDS011;27709;52.036;5.906;2022-08-03T11:53:52;8.57;;;1.20;;
42030;SDS011;27709;52.036;5.906;2022-08-03T11:56:17;8.00;;;1.40;;
42030;SDS011;27709;52.036;5.906;2022-08-03T11:58:51;8.32;;;1.20;;
42030;SDS011;27709;52.036;5.906;2022-08-03T12:01:19;10.15;;;1.45;;
42030;SDS011;27709;52.036;5.906;2022-08-03T12:03:46;7.43;;;1.33;;
42030;SDS011;27709;52.036;5.906;2022-08-03T12:06:13;7.35;;;1.55;;
42030;SDS011;27709;52.036;5.906;2022-08-03T12:08:40;8.57;;;1.98;;
42030;SDS011;27709;52.036;5.906;2022-08-03T12:11:07;9.35;;;1.42;;
42030;SDS011;27709;52.036;5.906;2022-08-03T12:13:53;7.95;;;1.30;;
42030;SDS011;27709;52.036;5.906;2022-08-03T12:16:23;7.90;;;1.60;;
42030;SDS011;27709;52.036;5.906;2022-08-03T12:21:25;7.10;;;1.00;;
42030;SDS011;27709;52.036;5.906;2022-08-03T12:23:55;7.85;;;1.17;;
42030;SDS011;27709;52.036;5.906;2022-08-03T12:26:25;7.50;;;1.45;;
42030;SDS011;27709;52.036;5.906;2022-08-03T12:28:51;6.55;;;1.40;;
42030;SDS011;27709;52.036;5.906;2022-08-03T12:31:16;9.45;;;1.70;;
42030;SDS011;27709;52.036;5.906;2022-08-03T12:36:20;8.23;;;1.30;;
42030;SDS011;27709;52.036;5.906;2022-08-03T12:38:52;6.07;;;1.00;;
42030;SDS011;27709;52.036;5.906;2022-08-03T12:41:29;9.52;;;1.95;;
42030;SDS011;27709;52.036;5.906;2022-08-03T12:44:01;7.28;;;1.10;;
42030;SDS011;27709;52.036;5.906;2022-08-03T12:46:29;9.00;;;1.40;;
42030;SDS011;27709;52.036;5.906;2022-08-03T12:51:28;8.88;;;1.25;;
42030;SDS011;27709;52.036;5.906;2022-08-03T12:53:56;9.43;;;1.27;;
42030;SDS011;27709;52.036;5.906;2022-08-03T12:56:22;9.35;;;1.23;;
42030;SDS011;27709;52.036;5.906;2022-08-03T12:58:48;6.38;;;1.05;;
42030;SDS011;27709;52.036;5.906;2022-08-03T13:01:15;7.93;;;1.10;;
42030;SDS011;27709;52.036;5.906;2022-08-03T13:03:44;7.80;;;1.27;;
42030;SDS011;27709;52.036;5.906;2022-08-03T13:06:16;9.30;;;1.30;;
42030;SDS011;27709;52.036;5.906;2022-08-03T13:08:44;7.13;;;1.23;;
42030;SDS011;27709;52.036;5.906;2022-08-03T13:11:19;5.57;;;1.20;;
42030;SDS011;27709;52.036;5.906;2022-08-03T13:13:45;7.03;;;1.25;;
42030;SDS011;27709;52.036;5.906;2022-08-03T13:16:11;4.78;;;0.70;;
42030;SDS011;27709;52.036;5.906;2022-08-03T13:18:36;3.95;;;0.80;;
42030;SDS011;27709;52.036;5.906;2022-08-03T13:21:02;4.78;;;0.73;;
42030;SDS011;27709;52.036;5.906;2022-08-03T13:23:28;4.97;;;0.98;;
42030;SDS011;27709;52.036;5.906;2022-08-03T13:25:53;4.05;;;0.70;;
42030;SDS011;27709;52.036;5.906;2022-08-03T13:28:19;3.05;;;0.60;;
42030;SDS011;27709;52.036;5.906;2022-08-03T13:30:44;4.30;;;0.80;;
42030;SDS011;27709;52.036;5.906;2022-08-03T13:33:10;2.47;;;0.63;;
42030;SDS011;27709;52.036;5.906;2022-08-03T13:35:35;2.38;;;0.70;;
42030;SDS011;27709;52.036;5.906;2022-08-03T13:38:01;4.18;;;0.70;;
42030;SDS011;27709;52.036;5.906;2022-08-03T13:40:26;3.22;;;0.55;;
42030;SDS011;27709;52.036;5.906;2022-08-03T13:42:52;4.63;;;0.68;;
42030;SDS011;27709;52.036;5.906;2022-08-03T13:45:17;3.65;;;0.60;;
42030;SDS011;27709;52.036;5.906;2022-08-03T13:47:43;2.28;;;0.63;;
42030;SDS011;27709;52.036;5.906;2022-08-03T13:50:10;3.90;;;0.70;;
42030;SDS011;27709;52.036;5.906;2022-08-03T13:52:35;4.00;;;0.95;;
42030;SDS011;27709;52.036;5.906;2022-08-03T13:55:02;3.97;;;0.82;;
42030;SDS011;27709;52.036;5.906;2022-08-03T13:57:29;2.47;;;0.50;;
42030;SDS011;27709;52.036;5.906;2022-08-03T13:59:55;2.60;;;0.77;;
42030;SDS011;27709;52.036;5.906;2022-08-03T14:02:20;3.97;;;0.60;;
42030;SDS011;27709;52.036;5.906;2022-08-03T14:04:46;3.30;;;0.70;;
42030;SDS011;27709;52.036;5.906;2022-08-03T14:07:11;3.40;;;0.60;;
42030;SDS011;27709;52.036;5.906;2022-08-03T14:09:38;2.50;;;0.65;;
42030;SDS011;27709;52.036;5.906;2022-08-03T14:12:04;4.10;;;0.80;;
42030;SDS011;27709;52.036;5.906;2022-08-03T14:14:30;3.22;;;1.00;;
42030;SDS011;27709;52.036;5.906;2022-08-03T14:16:56;3.30;;;0.95;;
42030;SDS011;27709;52.036;5.906;2022-08-03T14:19:21;3.75;;;0.75;;
42030;SDS011;27709;52.036;5.906;2022-08-03T14:21:47;4.05;;;0.70;;
42030;SDS011;27709;52.036;5.906;2022-08-03T14:24:12;3.20;;;0.80;;
42030;SDS011;27709;52.036;5.906;2022-08-03T14:26:38;4.13;;;0.77;;
42030;SDS011;27709;52.036;5.906;2022-08-03T14:29:03;3.80;;;0.70;;
42030;SDS011;27709;52.036;5.906;2022-08-03T14:31:29;3.17;;;0.70;;
42030;SDS011;27709;52.036;5.906;2022-08-03T14:33:55;3.08;;;0.68;;
42030;SDS011;27709;52.036;5.906;2022-08-03T14:36:20;1.55;;;0.57;;
42030;SDS011;27709;52.036;5.906;2022-08-03T14:38:46;2.90;;;0.80;;
42030;SDS011;27709;52.036;5.906;2022-08-03T14:41:12;3.38;;;0.90;;
42030;SDS011;27709;52.036;5.906;2022-08-03T14:43:37;4.25;;;0.73;;
42030;SDS011;27709;52.036;5.906;2022-08-03T14:46:03;2.63;;;0.75;;
42030;SDS011;27709;52.036;5.906;2022-08-03T14:48:28;2.90;;;0.80;;
42030;SDS011;27709;52.036;5.906;2022-08-03T14:50:54;3.50;;;0.98;;
42030;SDS011;27709;52.036;5.906;2022-08-03T14:53:20;3.20;;;0.77;;
42030;SDS011;27709;52.036;5.906;2022-08-03T14:55:46;2.42;;;0.65;;
42030;SDS011;27709;52.036;5.906;2022-08-03T14:58:13;3.17;;;0.77;;
42030;SDS011;27709;52.036;5.906;2022-08-03T15:00:39;3.45;;;0.45;;
42030;SDS011;27709;52.036;5.906;2022-08-03T15:03:05;1.80;;;0.63;;
42030;SDS011;27709;52.036;5.906;2022-08-03T15:05:30;3.88;;;0.80;;
42030;SDS011;27709;52.036;5.906;2022-08-03T15:07:56;2.17;;;0.70;;
42030;SDS011;27709;52.036;5.906;2022-08-03T15:10:22;3.92;;;0.95;;
42030;SDS011;27709;52.036;5.906;2022-08-03T15:12:47;1.58;;;0.60;;
42030;SDS011;27709;52.036;5.906;2022-08-03T15:15:13;2.35;;;0.70;;
42030;SDS011;27709;52.036;5.906;2022-08-03T15:17:39;2.10;;;0.73;;
42030;SDS011;27709;52.036;5.906;2022-08-03T15:20:04;1.73;;;0.60;;
42030;SDS011;27709;52.036;5.906;2022-08-03T15:22:30;1.60;;;0.77;;
42030;SDS011;27709;52.036;5.906;2022-08-03T15:24:56;2.35;;;0.70;;
42030;SDS011;27709;52.036;5.906;2022-08-03T15:27:22;2.95;;;0.70;;
42030;SDS011;27709;52.036;5.906;2022-08-03T15:29:47;3.42;;;0.90;;
42030;SDS011;27709;52.036;5.906;2022-08-03T15:32:13;4.35;;;0.98;;
42030;SDS011;27709;52.036;5.906;2022-08-03T15:34:39;1.85;;;0.77;;
42030;SDS011;27709;52.036;5.906;2022-08-03T15:37:04;2.55;;;0.80;;
42030;SDS011;27709;52.036;5.906;2022-08-03T15:39:30;3.67;;;0.70;;
42030;SDS011;27709;52.036;5.906;2022-08-03T15:41:56;3.35;;;0.70;;
42030;SDS011;27709;52.036;5.906;2022-08-03T15:44:24;3.65;;;0.75;;
42030;SDS011;27709;52.036;5.906;2022-08-03T15:46:53;3.50;;;0.70;;
42030;SDS011;27709;52.036;5.906;2022-08-03T15:49:25;1.40;;;0.70;;